createdAt,value
2017-01-01T00:00:33.403Z,91.951
2017-01-01T00:03:26.636Z,91.964
2017-01-01T00:06:22.635Z,92.180
2017-01-01T00:09:14.854Z,92.253
2017-01-01T00:12:06.518Z,92.083
2017-01-01T00:14:59.822Z,92.190
2017-01-01T00:17:53.086Z,92.297
2017-01-01T00:20:46.253Z,92.082
2017-01-01T00:23:41.393Z,91.958
2017-01-01T00:26:33.094Z,91.985
2017-01-01T00:29:26.313Z,92.185
2017-01-01T00:32:19.675Z,92.243
2017-01-01T00:35:12.923Z,92.310
2017-01-01T00:38:06.313Z,92.092
2017-01-01T00:40:59.533Z,91.831
2017-01-01T00:43:53.215Z,92.159
2017-01-01T00:46:46.469Z,91.918
2017-01-01T00:49:39.762Z,91.825
2017-01-01T00:52:32.921Z,91.930
2017-01-01T00:55:27.959Z,91.871
2017-01-01T00:58:19.405Z,92.108
2017-01-01T01:01:12.711Z,91.904
2017-01-01T01:04:06.018Z,91.834
2017-01-01T01:06:59.258Z,92.185
2017-01-01T01:09:52.463Z,91.851
2017-01-01T01:12:45.684Z,92.105
2017-01-01T01:15:38.928Z,92.322
2017-01-01T01:18:32.115Z,92.100
2017-01-01T01:21:25.727Z,92.150
2017-01-01T01:24:19.075Z,92.300
2017-01-01T01:27:12.780Z,91.907
2017-01-01T01:30:07.649Z,91.827
2017-01-01T01:32:59.182Z,91.585
2017-01-01T01:35:54.131Z,91.660
2017-01-01T01:38:45.612Z,91.602
2017-01-01T01:41:38.752Z,91.634
2017-01-01T01:44:33.783Z,91.586
2017-01-01T01:47:25.331Z,91.451
2017-01-01T01:50:20.274Z,91.166
2017-01-01T01:53:11.838Z,91.169
2017-01-01T01:56:05.155Z,91.250
2017-01-01T01:59:00.095Z,90.986
2017-01-01T02:01:51.706Z,90.938
2017-01-01T02:04:46.543Z,90.693
2017-01-01T02:07:39.700Z,90.625
2017-01-01T02:10:31.303Z,90.388
2017-01-01T02:13:24.471Z,90.340
2017-01-01T02:16:17.759Z,90.569
2017-01-01T02:19:12.751Z,90.463
2017-01-01T02:22:04.174Z,90.221
2017-01-01T02:24:57.387Z,90.519
2017-01-01T02:27:52.299Z,90.403
2017-01-01T02:30:43.850Z,90.525
2017-01-01T02:33:38.652Z,90.359
2017-01-01T02:36:31.851Z,90.431
2017-01-01T02:39:23.436Z,90.587
2017-01-01T02:42:16.657Z,90.627
2017-01-01T02:45:09.808Z,90.557
2017-01-01T02:48:03.432Z,90.288
2017-01-01T02:50:56.674Z,90.148
2017-01-01T02:53:51.461Z,90.020
2017-01-01T02:56:43.063Z,89.990
2017-01-01T02:59:36.225Z,90.022
2017-01-01T03:02:29.545Z,90.118
2017-01-01T03:05:22.650Z,90.202
2017-01-01T03:08:15.879Z,90.097
2017-01-01T03:11:08.930Z,90.080
2017-01-01T03:14:02.134Z,90.091
2017-01-01T03:16:55.315Z,90.074
2017-01-01T03:19:48.406Z,89.980
2017-01-01T03:22:41.615Z,89.934
2017-01-01T03:25:36.423Z,90.036
2017-01-01T03:28:27.900Z,90.034
2017-01-01T03:31:22.816Z,90.030
2017-01-01T03:34:14.271Z,90.059
2017-01-01T03:37:07.527Z,90.259
2017-01-01T03:40:02.382Z,90.068
2017-01-01T03:42:53.998Z,90.145
2017-01-01T03:45:47.187Z,90.269
2017-01-01T03:48:40.402Z,90.018
2017-01-01T03:51:33.552Z,90.048
2017-01-01T03:54:28.428Z,90.220
2017-01-01T03:57:20.358Z,90.408
2017-01-01T04:00:13.558Z,90.158
2017-01-01T04:03:06.781Z,90.282
2017-01-01T04:05:59.900Z,90.301
2017-01-01T04:08:53.111Z,90.333
2017-01-01T04:11:46.321Z,90.256
2017-01-01T04:14:39.644Z,90.298
2017-01-01T04:17:34.506Z,90.416
2017-01-01T04:20:27.740Z,90.426
2017-01-01T04:23:20.976Z,90.576
2017-01-01T04:26:12.616Z,90.530
2017-01-01T04:29:05.741Z,90.205
2017-01-01T04:32:00.802Z,90.319
2017-01-01T04:34:52.130Z,90.371
2017-01-01T04:37:45.441Z,90.109
2017-01-01T04:40:38.601Z,90.179
2017-01-01T04:43:31.839Z,90.153
2017-01-01T04:46:25.086Z,90.122
2017-01-01T04:49:18.319Z,90.032
2017-01-01T04:52:11.534Z,90.018
2017-01-01T04:55:04.693Z,90.192
2017-01-01T04:57:57.950Z,89.921
2017-01-01T05:00:51.159Z,89.776
2017-01-01T05:03:45.169Z,89.666
2017-01-01T05:06:37.570Z,89.746
2017-01-01T05:09:32.487Z,89.452
2017-01-01T05:12:23.945Z,89.358
2017-01-01T05:15:17.128Z,89.261
2017-01-01T05:18:10.391Z,89.563
2017-01-01T05:21:03.551Z,89.379
2017-01-01T05:23:56.786Z,89.290
2017-01-01T05:26:49.932Z,89.265
2017-01-01T05:29:44.852Z,89.007
2017-01-01T05:32:36.334Z,89.163
2017-01-01T05:35:31.361Z,88.988
2017-01-01T05:38:22.846Z,88.974
2017-01-01T05:41:18.246Z,89.028
2017-01-01T05:44:11.369Z,89.179
2017-01-01T05:47:02.929Z,89.123
2017-01-01T05:49:56.151Z,88.993
2017-01-01T05:52:49.294Z,89.104
2017-01-01T05:55:42.513Z,89.335
2017-01-01T05:58:35.788Z,89.555
2017-01-01T06:01:29.042Z,89.525
2017-01-01T06:04:22.205Z,89.294
2017-01-01T06:07:17.282Z,89.779
2017-01-01T06:10:08.590Z,89.892
2017-01-01T06:13:01.694Z,89.755
2017-01-01T06:15:56.614Z,89.750
2017-01-01T06:18:48.629Z,90.157
2017-01-01T06:21:41.730Z,90.298
2017-01-01T06:24:34.956Z,90.374
2017-01-01T06:27:27.993Z,90.010
2017-01-01T06:30:21.103Z,90.402
2017-01-01T06:33:14.026Z,90.208
2017-01-01T06:36:09.174Z,90.835
2017-01-01T06:39:02.472Z,90.797
2017-01-01T06:41:53.815Z,90.543
2017-01-01T06:44:47.063Z,90.374
2017-01-01T06:47:40.193Z,90.514
2017-01-01T06:50:33.186Z,90.657
2017-01-01T06:53:28.001Z,90.529
2017-01-01T06:56:19.422Z,91.132
2017-01-01T06:59:12.547Z,90.816
2017-01-01T07:02:05.638Z,90.943
2017-01-01T07:04:58.684Z,91.011
2017-01-01T07:07:51.749Z,90.892
2017-01-01T07:10:44.700Z,91.342
2017-01-01T07:13:37.809Z,90.839
2017-01-01T07:16:32.609Z,91.255
2017-01-01T07:19:25.772Z,91.321
2017-01-01T07:22:17.482Z,91.452
2017-01-01T07:25:12.346Z,91.070
2017-01-01T07:28:03.764Z,91.322
2017-01-01T07:30:56.865Z,91.070
2017-01-01T07:33:51.652Z,90.753
2017-01-01T07:36:43.077Z,91.033
2017-01-01T07:39:36.552Z,90.952
2017-01-01T07:42:29.609Z,91.338
2017-01-01T07:45:22.744Z,90.840
2017-01-01T07:48:15.800Z,91.394
2017-01-01T07:51:08.859Z,91.009
2017-01-01T07:54:01.925Z,90.713
2017-01-01T07:56:55.124Z,90.699
2017-01-01T07:59:49.205Z,90.989
2017-01-01T08:02:43.130Z,90.708
2017-01-01T08:05:34.445Z,90.782
2017-01-01T08:08:27.646Z,90.908
2017-01-01T08:11:20.824Z,90.471
2017-01-01T08:14:13.929Z,90.541
2017-01-01T08:17:07.124Z,90.630
2017-01-01T08:20:00.312Z,90.803
2017-01-01T08:22:53.433Z,90.609
2017-01-01T08:25:46.523Z,90.387
2017-01-01T08:28:40.160Z,90.349
2017-01-01T08:31:33.296Z,90.234
2017-01-01T08:34:26.465Z,89.962
2017-01-01T08:37:19.726Z,89.609
2017-01-01T08:40:12.822Z,89.689
2017-01-01T08:43:06.010Z,89.529
2017-01-01T08:45:59.223Z,89.316
2017-01-01T08:48:52.404Z,89.101
2017-01-01T08:51:45.600Z,88.872
2017-01-01T08:54:38.738Z,88.880
2017-01-01T08:57:31.986Z,88.829
2017-01-01T09:00:25.135Z,88.606
2017-01-01T09:03:18.442Z,87.942
2017-01-01T09:06:13.530Z,87.848
2017-01-01T09:09:06.655Z,87.382
2017-01-01T09:12:00.013Z,87.336
2017-01-01T09:14:53.180Z,86.802
2017-01-01T09:17:44.649Z,86.791
2017-01-01T09:20:37.836Z,87.084
2017-01-01T09:23:31.098Z,87.146
2017-01-01T09:26:24.507Z,86.496
2017-01-01T09:29:17.698Z,86.366
2017-01-01T09:32:12.592Z,86.608
2017-01-01T09:35:04.133Z,86.755
2017-01-01T09:37:57.445Z,85.314
2017-01-01T09:40:50.913Z,84.574
2017-01-01T09:43:44.535Z,83.481
2017-01-01T09:46:37.988Z,80.399
2017-01-01T09:49:31.443Z,79.935
2017-01-01T09:52:26.475Z,79.383
2017-01-01T09:55:18.043Z,80.954
2017-01-01T09:58:11.292Z,80.994
2017-01-01T10:01:06.331Z,81.730
2017-01-01T10:03:58.070Z,81.400
2017-01-01T10:06:51.342Z,82.101
2017-01-01T10:09:44.747Z,82.465
2017-01-01T10:12:37.941Z,82.550
2017-01-01T10:15:31.337Z,82.589
2017-01-01T10:18:24.712Z,82.738
2017-01-01T10:21:18.080Z,82.464
2017-01-01T10:24:13.092Z,82.862
2017-01-01T10:27:04.720Z,83.258
2017-01-01T10:29:58.103Z,82.514
2017-01-01T10:32:51.437Z,82.135
2017-01-01T10:35:44.871Z,82.654
2017-01-01T10:38:38.220Z,82.572
2017-01-01T10:41:31.483Z,83.405
2017-01-01T10:44:24.748Z,83.125
2017-01-01T10:47:18.111Z,82.370
2017-01-01T10:50:11.431Z,82.875
2017-01-01T10:53:04.772Z,82.689
2017-01-01T10:55:58.111Z,83.953
2017-01-01T10:58:51.429Z,83.390
2017-01-01T11:01:44.834Z,83.034
2017-01-01T11:04:38.055Z,82.648
2017-01-01T11:07:33.078Z,82.763
2017-01-01T11:10:26.357Z,82.719
2017-01-01T11:13:19.630Z,82.922
2017-01-01T11:16:13.037Z,82.873
2017-01-01T11:19:04.683Z,83.334
2017-01-01T11:21:58.326Z,83.027
2017-01-01T11:24:51.497Z,82.820
2017-01-01T11:27:44.783Z,82.981
2017-01-01T11:30:38.173Z,82.757
2017-01-01T11:33:31.710Z,82.732
2017-01-01T11:36:25.016Z,82.814
2017-01-01T11:39:18.415Z,83.028
2017-01-01T11:42:11.827Z,83.079
2017-01-01T11:45:05.227Z,82.629
2017-01-01T11:47:58.614Z,82.912
2017-01-01T11:50:52.056Z,82.569
2017-01-01T11:53:45.381Z,82.748
2017-01-01T11:56:38.702Z,83.166
2017-01-01T11:59:33.726Z,82.786
2017-01-01T12:02:25.302Z,83.024
2017-01-01T12:05:18.663Z,83.317
2017-01-01T12:08:11.928Z,83.063
2017-01-01T12:11:06.845Z,83.082
2017-01-01T12:13:58.491Z,83.085
2017-01-01T12:16:51.838Z,83.025
2017-01-01T12:19:45.130Z,83.528
2017-01-01T12:22:38.431Z,83.658
2017-01-01T12:25:33.468Z,83.903
2017-01-01T12:28:25.025Z,84.098
2017-01-01T12:31:18.351Z,84.168
2017-01-01T12:34:11.687Z,84.034
2017-01-01T12:37:05.005Z,83.944
2017-01-01T12:39:58.289Z,84.113
2017-01-01T12:42:53.123Z,84.149
2017-01-01T12:45:44.689Z,84.264
2017-01-01T12:48:37.952Z,84.135
2017-01-01T12:51:31.307Z,84.815
2017-01-01T12:54:24.568Z,84.162
2017-01-01T12:57:17.748Z,84.168
2017-01-01T13:00:10.978Z,84.126
2017-01-01T13:03:05.969Z,84.634
2017-01-01T13:05:59.339Z,84.676
2017-01-01T13:08:50.884Z,84.538
2017-01-01T13:11:44.178Z,84.046
2017-01-01T13:14:39.155Z,84.739
2017-01-01T13:17:30.741Z,84.705
2017-01-01T13:20:25.638Z,84.408
2017-01-01T13:23:17.177Z,84.669
2017-01-01T13:26:10.477Z,84.941
2017-01-01T13:29:03.859Z,85.097
2017-01-01T13:31:57.230Z,85.338
2017-01-01T13:34:52.289Z,85.177
2017-01-01T13:37:43.809Z,85.283
2017-01-01T13:40:37.052Z,85.485
2017-01-01T13:43:30.400Z,85.884
2017-01-01T13:46:23.652Z,85.511
2017-01-01T13:49:16.817Z,85.458
2017-01-01T13:52:10.025Z,85.239
2017-01-01T13:55:03.283Z,85.357
2017-01-01T13:57:56.443Z,85.684
2017-01-01T14:00:49.659Z,85.448
2017-01-01T14:03:44.694Z,85.705
2017-01-01T14:06:36.235Z,85.368
2017-01-01T14:09:31.508Z,85.739
2017-01-01T14:12:23.067Z,85.284
2017-01-01T14:15:16.200Z,85.362
2017-01-01T14:18:09.379Z,85.588
2017-01-01T14:21:02.592Z,85.352
2017-01-01T14:23:55.872Z,85.713
2017-01-01T14:26:49.138Z,85.549
2017-01-01T14:29:44.189Z,85.605
2017-01-01T14:32:37.490Z,85.934
2017-01-01T14:35:30.530Z,85.319
2017-01-01T14:38:23.953Z,85.414
2017-01-01T14:41:15.343Z,85.157
2017-01-01T14:44:08.417Z,85.183
2017-01-01T14:47:03.348Z,85.219
2017-01-01T14:49:54.874Z,85.490
2017-01-01T14:52:48.123Z,85.251
2017-01-01T14:55:42.987Z,85.394
2017-01-01T14:58:36.062Z,85.495
2017-01-01T15:01:27.586Z,85.304
2017-01-01T15:04:20.873Z,85.384
2017-01-01T15:07:14.122Z,85.721
2017-01-01T15:10:07.136Z,85.596
2017-01-01T15:13:01.912Z,85.659
2017-01-01T15:15:53.487Z,85.495
2017-01-01T15:18:48.580Z,85.756
2017-01-01T15:21:41.640Z,85.831
2017-01-01T15:24:33.018Z,85.230
2017-01-01T15:27:27.950Z,85.453
2017-01-01T15:30:19.377Z,85.919
2017-01-01T15:33:14.216Z,85.621
2017-01-01T15:36:07.395Z,85.483
2017-01-01T15:38:58.870Z,85.146
2017-01-01T15:41:54.231Z,85.357
2017-01-01T15:44:45.605Z,85.174
2017-01-01T15:47:38.892Z,85.083
2017-01-01T15:50:33.751Z,84.856
2017-01-01T15:53:25.239Z,84.958
2017-01-01T15:56:18.527Z,84.651
2017-01-01T15:59:11.762Z,84.935
2017-01-01T16:02:04.850Z,85.032
2017-01-01T16:04:59.851Z,84.543
2017-01-01T16:07:51.416Z,84.700
2017-01-01T16:10:44.574Z,84.020
2017-01-01T16:13:37.757Z,84.156
2017-01-01T16:16:30.932Z,84.395
2017-01-01T16:19:24.550Z,84.141
2017-01-01T16:22:17.639Z,83.757
2017-01-01T16:25:10.812Z,83.806
2017-01-01T16:28:04.009Z,84.268
2017-01-01T16:30:58.918Z,84.044
2017-01-01T16:33:50.371Z,83.855
2017-01-01T16:36:43.590Z,84.053
2017-01-01T16:39:36.658Z,83.994
2017-01-01T16:42:29.890Z,84.274
2017-01-01T16:45:23.108Z,84.166
2017-01-01T16:48:16.375Z,84.033
2017-01-01T16:51:11.578Z,83.971
2017-01-01T16:54:03.038Z,84.250
2017-01-01T16:56:56.197Z,84.377
2017-01-01T16:59:49.384Z,84.563
2017-01-01T17:02:44.319Z,84.425
2017-01-01T17:05:37.401Z,84.230
2017-01-01T17:08:28.892Z,84.125
2017-01-01T17:11:22.055Z,84.750
2017-01-01T17:14:17.541Z,84.286
2017-01-01T17:17:10.808Z,84.459
2017-01-01T17:20:03.930Z,84.578
2017-01-01T17:22:56.772Z,84.737
2017-01-01T17:25:48.158Z,84.662
2017-01-01T17:28:41.303Z,84.869
2017-01-01T17:31:34.413Z,84.993
2017-01-01T17:34:29.328Z,84.787
2017-01-01T17:37:20.673Z,84.901
2017-01-01T17:40:13.881Z,84.844
2017-01-01T17:43:08.836Z,84.635
2017-01-01T17:46:00.937Z,84.561
2017-01-01T17:48:53.785Z,84.125
2017-01-01T17:51:46.896Z,84.398
2017-01-01T17:54:40.049Z,84.774
2017-01-01T17:57:33.254Z,84.601
2017-01-01T18:00:28.050Z,84.985
2017-01-01T18:03:20.449Z,83.980
2017-01-01T18:06:12.597Z,83.774
2017-01-01T18:09:06.260Z,83.847
2017-01-01T18:12:01.104Z,84.057
2017-01-01T18:14:52.578Z,84.055
2017-01-01T18:17:45.680Z,83.750
2017-01-01T18:20:40.598Z,84.021
2017-01-01T18:23:32.692Z,83.681
2017-01-01T18:26:25.187Z,84.008
2017-01-01T18:29:20.058Z,84.147
2017-01-01T18:32:11.456Z,84.375
2017-01-01T18:35:04.629Z,84.482
2017-01-01T18:37:57.670Z,84.707
2017-01-01T18:40:50.773Z,84.550
2017-01-01T18:43:45.636Z,84.632
2017-01-01T18:46:37.029Z,84.800
2017-01-01T18:49:29.999Z,84.972
2017-01-01T18:52:23.142Z,85.268
2017-01-01T18:55:17.137Z,84.966
2017-01-01T18:58:09.583Z,84.833
2017-01-01T19:01:02.763Z,84.838
2017-01-01T19:03:55.884Z,85.012
2017-01-01T19:06:51.202Z,84.875
2017-01-01T19:09:42.546Z,85.264
2017-01-01T19:12:35.563Z,84.927
2017-01-01T19:15:30.289Z,84.590
2017-01-01T19:18:22.540Z,84.814
2017-01-01T19:21:14.699Z,84.505
2017-01-01T19:24:08.043Z,84.356
2017-01-01T19:27:01.075Z,84.669
2017-01-01T19:29:56.067Z,84.450
2017-01-01T19:32:49.157Z,84.327
2017-01-01T19:35:42.390Z,84.537
2017-01-01T19:38:35.524Z,84.744
2017-01-01T19:41:26.966Z,84.822
2017-01-01T19:44:20.077Z,85.119
2017-01-01T19:47:14.895Z,85.054
2017-01-01T19:50:06.929Z,84.966
2017-01-01T19:53:00.072Z,84.193
2017-01-01T19:55:54.911Z,84.246
2017-01-01T19:58:46.572Z,84.853
2017-01-01T20:01:39.771Z,83.729
2017-01-01T20:04:32.888Z,83.219
2017-01-01T20:07:28.607Z,83.710
2017-01-01T20:10:19.814Z,82.678
2017-01-01T20:13:12.115Z,83.306
2017-01-01T20:16:05.220Z,82.709
2017-01-01T20:18:58.790Z,82.941
2017-01-01T20:21:51.780Z,83.387
2017-01-01T20:24:45.056Z,82.898
2017-01-01T20:27:38.130Z,82.918
2017-01-01T20:30:31.605Z,82.864
2017-01-01T20:33:24.747Z,82.626
2017-01-01T20:36:18.650Z,82.378
2017-01-01T20:39:10.582Z,83.048
2017-01-01T20:42:03.683Z,83.216
2017-01-01T20:44:56.716Z,83.381
2017-01-01T20:47:51.584Z,83.419
2017-01-01T20:50:42.931Z,83.517
2017-01-01T20:53:38.099Z,84.111
2017-01-01T20:56:29.433Z,83.801
2017-01-01T20:59:22.413Z,84.032
2017-01-01T21:02:17.260Z,84.372
2017-01-01T21:05:08.529Z,84.429
2017-01-01T21:08:01.599Z,84.329
2017-01-01T21:10:54.631Z,84.643
2017-01-01T21:13:48.170Z,84.788
2017-01-01T21:16:41.274Z,84.832
2017-01-01T21:19:34.332Z,84.816
2017-01-01T21:22:29.081Z,85.214
2017-01-01T21:25:20.375Z,85.514
2017-01-01T21:28:15.104Z,85.508
2017-01-01T21:31:06.573Z,85.791
2017-01-01T21:36:54.413Z,86.260
2017-01-01T21:39:45.715Z,85.823
2017-01-01T21:42:38.849Z,86.185
2017-01-01T21:45:31.813Z,86.472
2017-01-01T21:48:24.882Z,86.173
2017-01-01T21:51:17.842Z,86.724
2017-01-01T21:54:11.732Z,87.226
2017-01-01T21:57:03.959Z,87.287
2017-01-01T21:59:57.049Z,87.504
2017-01-01T22:02:51.745Z,87.489
2017-01-01T22:05:45.075Z,88.199
2017-01-01T22:08:36.342Z,86.839
2017-01-01T22:11:29.313Z,88.097
2017-01-01T22:14:22.352Z,88.362
2017-01-01T22:17:17.251Z,88.176
2017-01-01T22:20:10.372Z,88.263
2017-01-01T22:23:03.458Z,88.357
2017-01-01T22:25:54.793Z,88.764
2017-01-01T22:28:49.681Z,87.917
2017-01-01T22:31:40.987Z,88.430
2017-01-01T22:34:33.956Z,88.087
2017-01-01T22:37:27.035Z,88.161
2017-01-01T22:40:21.629Z,87.723
2017-01-01T22:43:13.134Z,87.834
2017-01-01T22:46:06.219Z,87.356
2017-01-01T22:48:59.303Z,87.830
2017-01-01T22:51:54.188Z,87.949
2017-01-01T22:54:45.530Z,87.729
2017-01-01T22:57:38.669Z,87.909
2017-01-01T23:00:31.828Z,87.648
2017-01-01T23:03:24.837Z,87.974
2017-01-01T23:06:18.133Z,87.667
2017-01-01T23:09:12.750Z,87.459
2017-01-01T23:12:05.072Z,87.875
2017-01-01T23:14:59.093Z,87.719
2017-01-01T23:17:50.350Z,87.816
2017-01-01T23:20:43.557Z,87.515
2017-01-01T23:23:36.783Z,86.867
2017-01-01T23:26:30.182Z,86.786
2017-01-01T23:29:23.238Z,87.863
2017-01-01T23:32:16.277Z,87.333
2017-01-01T23:35:09.394Z,87.230
2017-01-01T23:38:02.616Z,87.182
2017-01-01T23:40:55.738Z,87.434
2017-01-01T23:43:48.932Z,87.207
2017-01-01T23:46:42.050Z,86.668
2017-01-01T23:49:35.153Z,86.794
2017-01-01T23:52:28.221Z,86.516
2017-01-01T23:55:23.163Z,86.572
2017-01-01T23:58:15.503Z,86.713
